Time;durP1;ratioP1;P1;durP2;ratioP2;P2;SDS_P1;SDS_P2;PMS_P1;PMS_P2;Temp;Humidity;BMP_temperature;BMP_pressure;BME280_temperature;BME280_humidity;BME280_pressure;Samples;Min_cycle;Max_cycle;Signal;HPM_P1;HPM_P2
2021/11/27 00:00:13;;;;;;;3.13;1.35;;;5.10;58.00;;;;;;5019040;28;20204;-77
2021/11/27 00:02:40;;;;;;;2.35;1.45;;;5.00;58.40;;;;;;5019978;28;20299;-79
2021/11/27 00:05:08;;;;;;;2.90;0.70;;;5.00;59.30;;;;;;5019268;28;20211;-79
2021/11/27 00:07:35;;;;;;;1.52;1.20;;;4.90;59.60;;;;;;5019737;28;20215;-80
2021/11/27 00:10:02;;;;;;;2.03;1.20;;;4.80;59.70;;;;;;5024582;28;20223;-79
2021/11/27 00:12:30;;;;;;;2.30;1.42;;;4.80;60.40;;;;;;5025708;28;20688;-79
2021/11/27 00:14:57;;;;;;;2.60;1.50;;;4.80;60.80;;;;;;5027660;28;20215;-78
2021/11/27 00:17:24;;;;;;;1.60;1.38;;;4.70;61.00;;;;;;5029353;28;20250;-79
2021/11/27 00:19:51;;;;;;;4.75;1.75;;;4.80;61.40;;;;;;5027596;28;20219;-79
2021/11/27 00:22:18;;;;;;;1.45;1.27;;;4.80;62.80;;;;;;5019944;28;20484;-79
2021/11/27 00:24:45;;;;;;;3.22;1.02;;;4.70;63.20;;;;;;5021225;28;20232;-79
2021/11/27 00:27:12;;;;;;;4.22;1.27;;;4.70;64.10;;;;;;5026576;28;20226;-76
2021/11/27 00:29:40;;;;;;;3.10;1.65;;;4.70;64.10;;;;;;5027493;28;20231;-78
2021/11/27 00:32:07;;;;;;;2.00;1.30;;;4.70;64.10;;;;;;5028546;28;20211;-78
2021/11/27 00:34:34;;;;;;;2.63;1.52;;;4.60;64.80;;;;;;5027121;28;20235;-77
2021/11/27 00:37:01;;;;;;;2.05;1.20;;;4.50;65.20;;;;;;5027206;28;20204;-78
2021/11/27 00:39:28;;;;;;;2.17;1.38;;;4.50;65.90;;;;;;5017486;28;20215;-77
2021/11/27 00:41:54;;;;;;;2.35;1.10;;;4.50;67.00;;;;;;5016668;28;20208;-77
2021/11/27 00:44:22;;;;;;;2.63;1.20;;;4.50;67.60;;;;;;5016018;28;20706;-78
2021/11/27 00:46:51;;;;;;;2.58;1.35;;;4.50;67.80;;;;;;5015971;28;20219;-79
2021/11/27 00:49:18;;;;;;;1.35;1.15;;;4.40;68.20;;;;;;5017211;28;20208;-78
2021/11/27 00:51:45;;;;;;;1.30;1.17;;;4.40;68.20;;;;;;5023264;28;20214;-78
2021/11/27 00:54:12;;;;;;;2.28;1.20;;;4.40;68.20;;;;;;5037826;28;20230;-78
2021/11/27 00:56:39;;;;;;;1.33;1.23;;;4.40;68.20;;;;;;5033783;28;20204;-79
2021/11/27 00:59:07;;;;;;;1.50;1.40;;;4.40;68.50;;;;;;5027257;28;20734;-80
2021/11/27 01:01:35;;;;;;;3.28;1.40;;;4.30;68.10;;;;;;5028640;28;20195;-81
2021/11/27 01:04:03;;;;;;;4.35;1.13;;;4.40;68.50;;;;;;5025602;23;20718;-75
2021/11/27 01:06:30;;;;;;;2.35;1.70;;;4.40;68.20;;;;;;4996210;28;20226;-74
2021/11/27 01:09:00;;;;;;;1.20;1.10;;;4.40;68.20;;;;;;4995240;28;20224;-75
2021/11/27 01:11:31;;;;;;;1.50;1.38;;;4.40;68.00;;;;;;4995164;28;20191;-74
2021/11/27 01:14:01;;;;;;;1.55;1.10;;;4.40;68.00;;;;;;4995979;28;20250;-76
2021/11/27 01:16:31;;;;;;;1.88;1.23;;;4.40;67.80;;;;;;4995035;28;20579;-74
2021/11/27 01:18:58;;;;;;;1.88;1.00;;;4.40;68.80;;;;;;4995168;28;20235;-75
2021/11/27 01:21:30;;;;;;;1.33;1.23;;;4.40;67.80;;;;;;4994031;28;20227;-74
2021/11/27 01:24:10;;;;;;;2.90;1.20;;;4.40;67.80;;;;;;4994731;28;20236;-75
2021/11/27 01:27:07;;;;;;;1.42;0.95;;;4.40;67.60;;;;;;4996517;28;20191;-76
2021/11/27 01:29:43;;;;;;;2.15;1.00;;;4.40;67.40;;;;;;4997792;28;20209;-76
2021/11/27 01:32:12;;;;;;;1.83;1.10;;;4.50;67.30;;;;;;4994877;28;20216;-75
2021/11/27 01:34:40;;;;;;;1.60;1.00;;;4.50;66.50;;;;;;4996476;28;20602;-76
2021/11/27 01:37:09;;;;;;;1.00;0.90;;;4.60;66.20;;;;;;5000489;28;20215;-76
2021/11/27 01:39:36;;;;;;;1.25;0.98;;;4.70;65.70;;;;;;5002353;28;20239;-76
2021/11/27 01:42:04;;;;;;;0.70;0.70;;;4.70;66.10;;;;;;5006545;28;20226;-75
2021/11/27 01:44:31;;;;;;;1.95;0.80;;;4.70;66.70;;;;;;5006555;28;20232;-75
2021/11/27 01:46:57;;;;;;;3.00;0.98;;;4.70;67.50;;;;;;5012931;28;20299;-76
2021/11/27 01:49:26;;;;;;;1.15;0.90;;;4.70;68.40;;;;;;5011352;28;20208;-76
2021/11/27 01:51:53;;;;;;;1.05;0.80;;;4.70;69.30;;;;;;5008200;28;20211;-76
2021/11/27 01:54:23;;;;;;;1.75;0.90;;;4.70;70.60;;;;;;5008698;28;20347;-77
2021/11/27 01:56:52;;;;;;;2.00;0.95;;;4.60;71.80;;;;;;5009210;28;20219;-76
2021/11/27 01:59:19;;;;;;;1.77;1.08;;;4.60;72.70;;;;;;5008462;28;20232;-76
2021/11/27 02:01:48;;;;;;;1.90;0.95;;;4.50;73.20;;;;;;5007413;28;20212;-75
2021/11/27 02:04:16;;;;;;;0.85;0.80;;;4.50;73.50;;;;;;5007312;28;20236;-77
2021/11/27 02:06:45;;;;;;;3.20;1.10;;;4.50;74.50;;;;;;5009221;28;20219;-76
2021/11/27 02:09:18;;;;;;;0.70;0.70;;;4.50;74.80;;;;;;5009677;28;20204;-75
2021/11/27 02:11:47;;;;;;;1.08;0.88;;;4.50;75.30;;;;;;5007251;28;20215;-75
2021/11/27 02:14:14;;;;;;;0.68;0.68;;;4.50;75.20;;;;;;5004869;28;20266;-76
2021/11/27 02:16:42;;;;;;;0.95;0.85;;;4.50;75.40;;;;;;5003504;28;20314;-75
2021/11/27 02:19:10;;;;;;;1.02;0.85;;;4.50;76.20;;;;;;5004267;28;20231;-74
2021/11/27 02:21:40;;;;;;;0.70;0.70;;;4.50;76.50;;;;;;5000955;28;20558;-75
2021/11/27 02:24:07;;;;;;;1.15;1.05;;;4.50;76.30;;;;;;4998211;28;20227;-76
2021/11/27 02:26:36;;;;;;;1.30;1.00;;;4.50;76.80;;;;;;4997806;28;20216;-76
2021/11/27 02:29:08;;;;;;;1.70;0.77;;;4.50;76.90;;;;;;4997534;28;20205;-76
2021/11/27 02:31:36;;;;;;;1.10;0.80;;;4.60;76.90;;;;;;4996827;28;20212;-75
2021/11/27 02:34:03;;;;;;;1.63;0.90;;;4.60;76.60;;;;;;4996075;28;20232;-76
2021/11/27 02:36:31;;;;;;;0.63;0.60;;;4.50;77.10;;;;;;4995778;28;20220;-76
2021/11/27 02:39:00;;;;;;;2.88;0.98;;;4.50;77.90;;;;;;4995492;28;20242;-75
2021/11/27 02:41:27;;;;;;;0.73;0.73;;;4.50;78.00;;;;;;4994975;28;20219;-75
2021/11/27 02:43:54;;;;;;;0.60;0.60;;;4.50;78.90;;;;;;4994888;28;20242;-76
2021/11/27 02:46:21;;;;;;;0.85;0.70;;;4.50;78.80;;;;;;4998801;28;20215;-76
2021/11/27 02:48:48;;;;;;;2.42;0.63;;;4.50;79.00;;;;;;4998458;28;20210;-76
2021/11/27 02:51:16;;;;;;;0.80;0.77;;;4.40;80.10;;;;;;4997854;28;20552;-76
2021/11/27 02:53:43;;;;;;;0.65;0.65;;;4.50;81.00;;;;;;4998812;28;20235;-76
2021/11/27 02:56:12;;;;;;;0.82;0.68;;;4.50;81.00;;;;;;5000354;28;20208;-76
2021/11/27 02:58:39;;;;;;;1.73;1.08;;;4.50;81.00;;;;;;4999985;28;20353;-76
2021/11/27 03:01:08;;;;;;;0.70;0.70;;;4.40;81.90;;;;;;4998692;28;20215;-76
2021/11/27 03:03:36;;;;;;;0.93;0.80;;;4.40;83.40;;;;;;4998032;28;20252;-75
2021/11/27 03:06:04;;;;;;;0.88;0.80;;;4.40;84.40;;;;;;5000919;28;20219;-76
2021/11/27 03:08:31;;;;;;;1.27;0.90;;;4.30;84.90;;;;;;4997001;28;20214;-76
2021/11/27 03:10:58;;;;;;;0.80;0.60;;;4.20;85.20;;;;;;4996166;28;20302;-75
2021/11/27 03:13:32;;;;;;;0.75;0.75;;;4.20;86.90;;;;;;4996297;28;20232;-75
2021/11/27 03:15:59;;;;;;;1.15;0.80;;;4.20;88.30;;;;;;4997155;28;20218;-75
2021/11/27 03:18:26;;;;;;;1.75;1.10;;;4.20;89.00;;;;;;4996212;28;20227;-76
2021/11/27 03:20:54;;;;;;;0.98;0.88;;;4.20;90.00;;;;;;4997159;28;20214;-75
2021/11/27 03:23:22;;;;;;;1.80;0.77;;;4.20;90.20;;;;;;4996206;28;20312;-76
2021/11/27 03:25:49;;;;;;;0.55;0.55;;;4.20;90.40;;;;;;4995997;28;20208;-76
2021/11/27 03:28:17;;;;;;;2.17;0.70;;;4.20;91.00;;;;;;4996215;28;20639;-76
2021/11/27 03:30:45;;;;;;;0.55;0.55;;;4.20;91.30;;;;;;4995731;28;20216;-76
2021/11/27 03:33:12;;;;;;;0.47;0.47;;;4.20;91.30;;;;;;4995659;28;20247;-76
2021/11/27 03:35:40;;;;;;;2.17;0.45;;;4.20;91.80;;;;;;4996113;28;20702;-76
2021/11/27 03:38:08;;;;;;;0.93;0.40;;;4.20;92.10;;;;;;4995575;28;20211;-76
2021/11/27 03:40:34;;;;;;;0.50;0.45;;;4.10;92.30;;;;;;4995309;28;20227;-76
2021/11/27 03:43:02;;;;;;;0.60;0.60;;;4.10;92.60;;;;;;4995619;28;20231;-76
2021/11/27 03:45:30;;;;;;;0.50;0.50;;;4.00;92.60;;;;;;4995583;28;20297;-75
2021/11/27 03:48:03;;;;;;;0.50;0.50;;;4.00;92.90;;;;;;4995644;28;20208;-76
2021/11/27 03:50:33;;;;;;;0.50;0.50;;;4.00;93.10;;;;;;4995448;28;20307;-76
2021/11/27 03:53:00;;;;;;;0.50;0.50;;;3.90;94.10;;;;;;4995413;28;20218;-76
2021/11/27 03:55:27;;;;;;;0.40;0.40;;;4.00;94.00;;;;;;5012546;28;20738;-75
2021/11/27 03:57:54;;;;;;;0.40;0.40;;;3.90;94.10;;;;;;5015799;28;20199;-76
2021/11/27 04:00:21;;;;;;;0.65;0.45;;;3.90;94.40;;;;;;5015698;28;20238;-75
2021/11/27 04:02:48;;;;;;;0.88;0.45;;;3.90;94.70;;;;;;5018162;28;20215;-75
2021/11/27 04:05:19;;;;;;;0.43;0.40;;;3.90;94.90;;;;;;5012938;28;20282;-75
2021/11/27 04:07:46;;;;;;;0.50;0.50;;;3.90;95.20;;;;;;5010162;28;20211;-75
2021/11/27 04:10:14;;;;;;;0.70;0.70;;;3.90;95.30;;;;;;5011102;28;20212;-75
2021/11/27 04:12:41;;;;;;;1.75;0.50;;;3.90;95.20;;;;;;5011260;28;20312;-75
2021/11/27 04:15:09;;;;;;;0.32;0.30;;;3.90;95.40;;;;;;5001905;28;20653;-76
2021/11/27 04:17:36;;;;;;;0.40;0.40;;;3.90;95.60;;;;;;4995138;28;20691;-76
2021/11/27 04:20:03;;;;;;;0.40;0.30;;;3.90;95.30;;;;;;4995203;28;20256;-76
2021/11/27 04:22:31;;;;;;;0.40;0.40;;;3.90;95.50;;;;;;4995351;28;20219;-76
2021/11/27 04:24:58;;;;;;;0.73;0.40;;;3.90;95.60;;;;;;4995025;28;20239;-77
2021/11/27 04:27:25;;;;;;;0.95;0.45;;;4.00;95.50;;;;;;4994452;28;20237;-76
2021/11/27 04:29:52;;;;;;;0.40;0.40;;;4.00;95.50;;;;;;4994966;28;20207;-76
2021/11/27 04:32:18;;;;;;;0.38;0.30;;;4.00;95.70;;;;;;4994599;28;20680;-76
2021/11/27 04:34:45;;;;;;;0.50;0.30;;;4.00;95.10;;;;;;4994723;28;20258;-76
2021/11/27 04:37:14;;;;;;;0.40;0.40;;;4.00;94.80;;;;;;4994380;28;20223;-77
2021/11/27 04:39:43;;;;;;;0.50;0.40;;;4.10;94.80;;;;;;4993816;28;20549;-77
2021/11/27 04:42:10;;;;;;;0.43;0.43;;;4.10;94.60;;;;;;4993799;28;20216;-76
2021/11/27 04:44:37;;;;;;;0.40;0.40;;;4.10;94.60;;;;;;4993735;28;20231;-76
2021/11/27 04:47:04;;;;;;;0.47;0.47;;;4.10;94.80;;;;;;4994223;28;20212;-77
2021/11/27 04:49:31;;;;;;;0.40;0.40;;;4.20;94.40;;;;;;4994494;28;20231;-77
2021/11/27 04:51:58;;;;;;;0.50;0.47;;;4.20;93.60;;;;;;4994343;28;20214;-76
2021/11/27 04:54:24;;;;;;;0.35;0.30;;;4.10;93.00;;;;;;4995707;28;20493;-77
2021/11/27 04:56:52;;;;;;;0.57;0.57;;;4.10;92.90;;;;;;4994608;28;20208;-76
2021/11/27 04:59:19;;;;;;;1.55;0.40;;;4.10;92.90;;;;;;4994928;28;20227;-77
2021/11/27 05:01:46;;;;;;;0.40;0.40;;;4.10;92.50;;;;;;4994943;28;20361;-76
2021/11/27 05:04:13;;;;;;;0.47;0.45;;;4.10;92.30;;;;;;4995143;28;20293;-76
2021/11/27 05:06:40;;;;;;;0.40;0.40;;;4.20;92.00;;;;;;4995735;28;20216;-77
2021/11/27 05:09:07;;;;;;;0.40;0.40;;;4.20;91.70;;;;;;5002642;28;20196;-76
2021/11/27 05:11:34;;;;;;;0.50;0.50;;;4.30;91.10;;;;;;4994189;28;20221;-76
2021/11/27 05:14:02;;;;;;;0.35;0.35;;;4.30;90.70;;;;;;4993586;28;20240;-75
2021/11/27 05:16:30;;;;;;;0.50;0.50;;;4.30;90.40;;;;;;4993763;28;20212;-76
2021/11/27 05:18:57;;;;;;;0.43;0.43;;;4.40;90.00;;;;;;4993627;28;20224;-76
2021/11/27 05:21:24;;;;;;;1.30;0.52;;;4.40;90.00;;;;;;4993016;28;20295;-76
2021/11/27 05:23:51;;;;;;;0.50;0.50;;;4.40;89.10;;;;;;4993658;28;20233;-77
2021/11/27 05:26:18;;;;;;;0.40;0.40;;;4.40;87.90;;;;;;4993279;28;20213;-77
2021/11/27 05:28:45;;;;;;;0.40;0.40;;;4.40;86.50;;;;;;4993762;28;20218;-78
2021/11/27 05:31:15;;;;;;;0.50;0.50;;;4.40;86.70;;;;;;4992977;28;20246;-78
2021/11/27 05:34:09;;;;;;;0.50;0.50;;;4.50;86.40;;;;;;4993042;28;20227;-77
2021/11/27 05:36:39;;;;;;;0.40;0.40;;;4.50;85.10;;;;;;4993361;28;20216;-77
2021/11/27 05:39:07;;;;;;;0.55;0.55;;;4.40;85.00;;;;;;4992939;28;20326;-77
2021/11/27 05:41:33;;;;;;;0.40;0.40;;;4.50;85.10;;;;;;4992960;28;20677;-77
2021/11/27 05:44:00;;;;;;;0.30;0.30;;;4.50;85.30;;;;;;4993087;28;20232;-76
2021/11/27 05:46:29;;;;;;;0.60;0.60;;;4.50;85.10;;;;;;4992984;28;20659;-76
2021/11/27 05:48:55;;;;;;;0.55;0.55;;;4.50;85.20;;;;;;4992776;28;20270;-77
2021/11/27 05:51:22;;;;;;;0.90;0.90;;;4.50;85.20;;;;;;4992398;28;20212;-76
2021/11/27 05:53:49;;;;;;;0.60;0.50;;;4.50;85.10;;;;;;4992892;28;20290;-77
2021/11/27 05:56:16;;;;;;;0.50;0.50;;;4.60;85.70;;;;;;4993025;28;20223;-77
2021/11/27 05:58:43;;;;;;;1.05;0.40;;;4.60;85.20;;;;;;4992691;28;20688;-77
2021/11/27 06:01:10;;;;;;;0.45;0.45;;;4.60;85.20;;;;;;4993355;28;20220;-75
2021/11/27 06:03:38;;;;;;;0.80;0.45;;;4.60;85.20;;;;;;4992909;28;20279;-76
2021/11/27 06:06:06;;;;;;;0.40;0.40;;;4.60;85.20;;;;;;4992575;28;20213;-76
2021/11/27 06:08:33;;;;;;;0.70;0.45;;;4.60;85.20;;;;;;4993191;28;20230;-76
2021/11/27 06:11:00;;;;;;;0.50;0.50;;;4.60;84.80;;;;;;4993410;28;20361;-76
2021/11/27 06:13:26;;;;;;;0.43;0.43;;;4.50;84.50;;;;;;4993450;28;20235;-76
2021/11/27 06:15:53;;;;;;;0.40;0.40;;;4.40;85.00;;;;;;4993455;28;20204;-76
2021/11/27 06:18:20;;;;;;;0.60;0.30;;;4.40;85.00;;;;;;4996261;28;20208;-76
2021/11/27 06:20:48;;;;;;;0.40;0.40;;;4.40;85.10;;;;;;5002808;28;20251;-77
2021/11/27 06:23:15;;;;;;;0.50;0.50;;;4.40;86.00;;;;;;5006878;28;20247;-77
2021/11/27 06:25:42;;;;;;;0.75;0.57;;;4.40;86.10;;;;;;5006117;28;20220;-78
2021/11/27 06:28:09;;;;;;;0.40;0.40;;;4.40;86.60;;;;;;5005519;28;20235;-77
2021/11/27 06:30:36;;;;;;;0.60;0.60;;;4.40;87.30;;;;;;5006546;28;20209;-78
2021/11/27 06:33:03;;;;;;;0.50;0.50;;;4.40;87.50;;;;;;5010908;28;20228;-77
2021/11/27 06:35:30;;;;;;;0.50;0.40;;;4.50;87.20;;;;;;5002372;28;20247;-76
2021/11/27 06:37:58;;;;;;;1.27;0.60;;;4.60;86.60;;;;;;5002260;28;20280;-76
2021/11/27 06:40:25;;;;;;;1.02;0.63;;;4.60;86.00;;;;;;4996119;28;20238;-76
2021/11/27 06:42:51;;;;;;;1.10;0.90;;;4.60;85.20;;;;;;4994456;28;20211;-76
2021/11/27 06:45:18;;;;;;;0.75;0.75;;;4.60;85.10;;;;;;4994162;28;20208;-74
2021/11/27 06:47:45;;;;;;;0.80;0.57;;;4.60;85.10;;;;;;4993482;28;20211;-73
2021/11/27 06:50:13;;;;;;;0.70;0.70;;;4.70;85.30;;;;;;4992684;28;20201;-74
2021/11/27 06:52:40;;;;;;;1.10;0.85;;;4.70;85.10;;;;;;4992850;28;20216;-74
2021/11/27 06:55:09;;;;;;;1.60;1.00;;;4.70;85.30;;;;;;4993018;28;20232;-74
2021/11/27 06:57:35;;;;;;;1.00;0.90;;;4.70;85.30;;;;;;4992428;28;20217;-75
2021/11/27 07:00:04;;;;;;;1.10;0.60;;;4.70;84.70;;;;;;4994401;28;20240;-74
2021/11/27 07:02:31;;;;;;;1.00;0.90;;;4.70;84.30;;;;;;5000115;28;20665;-74
2021/11/27 07:04:58;;;;;;;1.05;0.80;;;4.60;85.00;;;;;;5081212;23;20713;-79
2021/11/27 07:07:25;;;;;;;0.98;0.45;;;4.60;85.20;;;;;;5033846;28;20298;-78
2021/11/27 07:09:52;;;;;;;0.73;0.73;;;4.60;85.60;;;;;;5034420;28;20585;-78
2021/11/27 07:12:20;;;;;;;0.70;0.60;;;4.60;86.40;;;;;;5035957;28;20215;-79
2021/11/27 07:14:47;;;;;;;0.70;0.70;;;4.60;86.30;;;;;;5034130;28;20227;-79
2021/11/27 07:17:14;;;;;;;0.65;0.63;;;4.60;86.70;;;;;;5033834;28;20222;-79
2021/11/27 07:19:41;;;;;;;0.90;0.73;;;4.60;86.60;;;;;;5034360;28;20222;-78
2021/11/27 07:22:08;;;;;;;1.00;0.75;;;4.60;86.30;;;;;;5033683;28;20674;-80
2021/11/27 07:24:35;;;;;;;0.90;0.60;;;4.60;86.40;;;;;;5034526;28;20222;-79
2021/11/27 07:27:06;;;;;;;0.60;0.60;;;4.70;86.10;;;;;;5035290;28;20215;-78
2021/11/27 07:29:35;;;;;;;0.85;0.85;;;4.70;85.30;;;;;;5034245;28;20650;-78
2021/11/27 07:32:02;;;;;;;0.70;0.60;;;4.70;85.30;;;;;;5037410;28;20643;-79
2021/11/27 07:34:29;;;;;;;0.77;0.77;;;4.80;84.60;;;;;;5038009;28;20226;-79
2021/11/27 07:36:56;;;;;;;0.90;0.90;;;4.80;84.20;;;;;;5037840;28;20217;-78
2021/11/27 07:39:22;;;;;;;1.30;1.20;;;4.80;84.00;;;;;;5038180;28;20701;-79
2021/11/27 07:41:49;;;;;;;1.13;1.02;;;4.90;83.80;;;;;;5043067;28;20207;-79
2021/11/27 07:44:16;;;;;;;1.60;1.00;;;4.90;83.70;;;;;;5045314;28;20234;-79
2021/11/27 07:46:47;;;;;;;1.02;0.90;;;5.00;83.10;;;;;;5039247;28;20211;-79
2021/11/27 07:49:14;;;;;;;0.70;0.70;;;5.00;82.80;;;;;;5045385;28;20214;-78
2021/11/27 07:51:41;;;;;;;1.02;0.90;;;5.00;82.40;;;;;;5053030;28;20568;-79
2021/11/27 07:54:07;;;;;;;1.27;1.10;;;4.90;83.10;;;;;;5056296;28;20223;-79
2021/11/27 07:56:34;;;;;;;0.82;0.82;;;4.90;83.40;;;;;;5057688;28;20214;-78
2021/11/27 07:59:01;;;;;;;0.80;0.73;;;4.90;83.90;;;;;;5054168;28;20215;-79
2021/11/27 08:01:29;;;;;;;1.10;1.00;;;4.90;84.60;;;;;;5050433;28;20231;-78
2021/11/27 08:03:57;;;;;;;2.63;0.82;;;4.90;84.90;;;;;;5051051;28;20322;-77
2021/11/27 08:06:24;;;;;;;0.85;0.80;;;5.00;85.50;;;;;;5050744;28;20203;-80
2021/11/27 08:08:51;;;;;;;1.35;1.10;;;5.00;84.80;;;;;;5049897;28;20230;-79
2021/11/27 08:11:19;;;;;;;0.80;0.80;;;5.10;84.30;;;;;;5049929;28;20206;-79
2021/11/27 08:13:47;;;;;;;2.75;1.02;;;5.20;82.40;;;;;;5047736;28;20310;-78
2021/11/27 08:16:15;;;;;;;0.80;0.80;;;5.30;82.10;;;;;;5049077;28;20207;-78
2021/11/27 08:18:42;;;;;;;0.98;0.75;;;5.30;80.90;;;;;;5049296;28;20218;-79
2021/11/27 08:21:10;;;;;;;1.20;1.10;;;5.30;80.30;;;;;;5048445;28;20238;-78
2021/11/27 08:23:37;;;;;;;1.08;0.90;;;5.30;79.90;;;;;;5048565;28;20234;-79
2021/11/27 08:26:04;;;;;;;1.30;1.00;;;5.30;80.60;;;;;;5044544;28;20216;-79
2021/11/27 08:28:31;;;;;;;0.90;0.90;;;5.30;80.90;;;;;;5045271;28;20203;-79
2021/11/27 08:30:58;;;;;;;1.85;1.60;;;5.30;82.30;;;;;;5048208;28;20306;-77
2021/11/27 08:33:24;;;;;;;1.42;1.33;;;5.20;81.60;;;;;;5048889;28;20211;-78
2021/11/27 08:35:51;;;;;;;2.05;1.65;;;5.10;82.70;;;;;;5050210;28;20225;-79
2021/11/27 08:38:20;;;;;;;2.17;1.23;;;5.10;84.50;;;;;;5050409;28;20278;-80
2021/11/27 08:40:48;;;;;;;2.05;1.42;;;5.10;85.60;;;;;;5050228;28;20219;-79
2021/11/27 08:43:15;;;;;;;1.40;1.30;;;5.10;85.90;;;;;;5047473;28;20267;-79
2021/11/27 08:45:45;;;;;;;1.45;1.35;;;5.10;86.70;;;;;;5050019;28;20279;-79
2021/11/27 08:48:12;;;;;;;1.50;1.40;;;5.20;87.50;;;;;;5051183;28;20213;-78
2021/11/27 08:50:39;;;;;;;1.50;1.40;;;5.20;87.90;;;;;;5050239;28;20206;-79
2021/11/27 08:53:06;;;;;;;1.80;1.50;;;5.10;88.30;;;;;;5049484;28;20211;-78
2021/11/27 08:55:34;;;;;;;3.97;1.80;;;5.10;89.00;;;;;;5049684;28;20222;-78
2021/11/27 08:58:01;;;;;;;2.30;2.03;;;5.00;90.00;;;;;;5049183;28;20305;-78
2021/11/27 09:00:29;;;;;;;2.58;2.15;;;5.00;90.80;;;;;;5050577;28;20230;-79
2021/11/27 09:02:57;;;;;;;2.78;1.90;;;4.90;91.60;;;;;;5049796;28;20210;-78
2021/11/27 09:05:25;;;;;;;1.40;1.30;;;4.90;91.90;;;;;;5046996;28;20265;-79
2021/11/27 09:07:52;;;;;;;2.50;1.67;;;4.90;92.40;;;;;;5034484;28;20218;-78
2021/11/27 09:10:19;;;;;;;1.02;1.00;;;4.90;92.70;;;;;;5027614;28;20215;-80
2021/11/27 09:12:48;;;;;;;1.92;1.52;;;4.90;93.20;;;;;;5027341;28;20210;-79
2021/11/27 09:15:15;;;;;;;3.03;1.48;;;4.90;93.30;;;;;;5030628;28;20287;-79
2021/11/27 09:17:42;;;;;;;1.70;1.60;;;4.90;93.30;;;;;;5031327;28;20212;-80
2021/11/27 09:20:09;;;;;;;1.75;1.35;;;4.90;93.90;;;;;;5051315;28;20225;-79
2021/11/27 09:22:36;;;;;;;1.55;1.27;;;5.00;94.30;;;;;;5043744;28;20207;-79
2021/11/27 09:25:04;;;;;;;1.50;1.40;;;5.00;94.00;;;;;;5029917;28;20219;-78
2021/11/27 09:27:31;;;;;;;1.25;1.15;;;5.00;94.80;;;;;;5017841;28;20219;-79
2021/11/27 09:29:59;;;;;;;2.60;1.25;;;5.00;94.80;;;;;;5018711;28;20219;-80
2021/11/27 09:32:26;;;;;;;0.85;0.85;;;4.90;94.70;;;;;;5018913;28;20222;-80
2021/11/27 09:34:54;;;;;;;1.30;1.20;;;4.90;94.50;;;;;;5019413;28;20227;-79
2021/11/27 09:37:22;;;;;;;1.20;1.10;;;4.90;94.70;;;;;;5018734;28;20239;-79
2021/11/27 09:39:49;;;;;;;2.13;1.10;;;4.90;94.70;;;;;;5018497;28;20274;-79
2021/11/27 09:42:18;;;;;;;2.00;1.15;;;4.80;94.40;;;;;;5019035;28;20254;-79
2021/11/27 09:44:48;;;;;;;1.23;1.00;;;4.90;95.10;;;;;;5027856;28;20733;-79
2021/11/27 09:47:18;;;;;;;1.20;1.10;;;4.90;95.10;;;;;;5026670;28;20271;-79
2021/11/27 09:49:46;;;;;;;1.10;1.00;;;4.80;95.10;;;;;;5021967;28;20212;-79
2021/11/27 09:52:13;;;;;;;1.90;1.00;;;4.90;95.60;;;;;;5022850;28;20302;-79
2021/11/27 09:54:40;;;;;;;1.40;1.30;;;4.90;96.10;;;;;;5039621;28;20254;-80
2021/11/27 09:57:09;;;;;;;1.33;1.23;;;4.90;96.20;;;;;;5036329;28;20207;-79
2021/11/27 09:59:37;;;;;;;2.33;1.38;;;5.00;96.40;;;;;;5027922;28;20634;-80
2021/11/27 10:02:07;;;;;;;2.20;1.13;;;5.00;96.00;;;;;;5028949;28;20230;-80
2021/11/27 10:04:38;;;;;;;1.60;1.48;;;4.90;95.50;;;;;;5028375;28;20319;-80
2021/11/27 10:07:06;;;;;;;2.15;1.60;;;4.90;95.80;;;;;;5027111;28;20235;-79
2021/11/27 10:09:33;;;;;;;2.78;1.58;;;5.00;96.40;;;;;;5025224;28;20203;-79
2021/11/27 10:12:03;;;;;;;1.80;1.40;;;5.00;95.80;;;;;;5023301;28;20283;-79
2021/11/27 10:14:30;;;;;;;1.15;1.05;;;4.90;95.30;;;;;;5020564;28;20227;-79
2021/11/27 10:17:06;;;;;;;2.58;1.70;;;4.90;95.50;;;;;;5020693;28;20210;-80
2021/11/27 10:19:53;;;;;;;2.22;1.75;;;4.90;95.10;;;;;;5019275;28;20203;-78
2021/11/27 10:22:23;;;;;;;2.25;1.33;;;4.90;95.10;;;;;;5017148;28;20270;-81
2021/11/27 10:24:50;;;;;;;1.95;1.45;;;4.90;95.00;;;;;;5016568;28;20236;-79
2021/11/27 10:27:20;;;;;;;6.68;3.03;;;4.90;95.10;;;;;;5021543;28;20200;-80
2021/11/27 10:30:00;;;;;;;1.30;1.20;;;4.90;95.20;;;;;;5030109;28;20204;-79
2021/11/27 10:32:35;;;;;;;1.83;1.73;;;4.90;95.40;;;;;;5017646;28;20209;-78
2021/11/27 10:35:07;;;;;;;1.38;1.27;;;4.80;95.40;;;;;;5017912;28;20317;-79
2021/11/27 10:37:39;;;;;;;2.00;1.35;;;4.80;95.80;;;;;;5029655;28;20192;-79
2021/11/27 10:40:09;;;;;;;4.22;1.73;;;4.80;95.80;;;;;;5031930;28;20218;-79
2021/11/27 10:42:37;;;;;;;1.45;1.35;;;4.80;95.90;;;;;;5032387;28;20208;-79
2021/11/27 10:45:13;;;;;;;3.42;1.85;;;4.80;96.10;;;;;;5024953;28;20236;-79
2021/11/27 10:47:40;;;;;;;4.28;1.70;;;4.80;96.10;;;;;;5021798;28;20215;-80
2021/11/27 10:50:10;;;;;;;3.63;1.80;;;4.90;96.50;;;;;;5025524;28;20203;-78
2021/11/27 10:52:38;;;;;;;3.75;2.45;;;5.00;96.00;;;;;;5037172;28;20214;-78
2021/11/27 10:55:19;;;;;;;5.05;3.05;;;5.00;95.90;;;;;;5034301;28;20632;-78
2021/11/27 10:57:47;;;;;;;2.95;1.50;;;5.00;95.50;;;;;;5034115;28;20203;-77
2021/11/27 11:00:32;;;;;;;2.00;1.40;;;5.10;95.20;;;;;;5036510;28;20207;-77
2021/11/27 11:02:59;;;;;;;5.50;2.47;;;5.10;94.80;;;;;;5033563;28;20191;-79
2021/11/27 11:05:39;;;;;;;2.10;1.90;;;5.10;94.90;;;;;;5032003;28;20678;-79
2021/11/27 11:08:08;;;;;;;1.77;1.67;;;5.00;93.50;;;;;;5020934;28;20196;-78
2021/11/27 11:10:36;;;;;;;1.75;1.50;;;4.90;93.50;;;;;;5020016;28;20211;-79
2021/11/27 11:13:05;;;;;;;2.10;1.85;;;4.90;93.70;;;;;;5027411;28;20207;-78
2021/11/27 11:15:34;;;;;;;3.97;2.83;;;4.90;94.00;;;;;;5039095;28;20601;-77
2021/11/27 11:18:20;;;;;;;3.90;2.30;;;4.90;93.70;;;;;;5035256;28;20213;-79
2021/11/27 11:20:51;;;;;;;2.45;1.80;;;4.90;94.20;;;;;;5027503;28;20223;-78
2021/11/27 11:23:21;;;;;;;2.78;2.20;;;5.00;93.60;;;;;;5023430;28;20203;-80
2021/11/27 11:26:07;;;;;;;3.65;2.00;;;4.90;94.10;;;;;;5024716;28;20211;-77
2021/11/27 11:28:36;;;;;;;2.15;1.95;;;5.00;94.10;;;;;;5038698;28;20205;-80
2021/11/27 11:31:08;;;;;;;2.90;2.10;;;5.10;93.90;;;;;;5038885;28;20205;-78
2021/11/27 11:33:39;;;;;;;2.13;1.88;;;5.20;93.60;;;;;;5038539;28;20218;-79
2021/11/27 11:36:09;;;;;;;5.07;2.22;;;5.20;93.00;;;;;;5022907;28;20273;-77
2021/11/27 11:38:37;;;;;;;2.13;1.92;;;5.20;93.30;;;;;;5022176;28;20291;-78
2021/11/27 11:41:04;;;;;;;3.28;2.22;;;5.30;92.40;;;;;;5027067;28;20224;-78
2021/11/27 11:43:31;;;;;;;1.42;1.33;;;5.20;91.70;;;;;;5028875;28;20230;-77
2021/11/27 11:45:58;;;;;;;3.97;1.88;;;5.20;91.70;;;;;;5025454;28;20222;-77
2021/11/27 11:48:27;;;;;;;2.05;1.83;;;5.20;91.70;;;;;;5039092;28;20210;-79
2021/11/27 11:51:02;;;;;;;2.33;2.13;;;5.20;91.70;;;;;;5022285;28;20211;-78
2021/11/27 11:53:36;;;;;;;3.72;1.70;;;5.30;91.20;;;;;;5038465;28;20223;-78
2021/11/27 11:56:05;;;;;;;2.28;1.70;;;5.20;91.00;;;;;;5043583;28;20270;-79
2021/11/27 11:58:37;;;;;;;2.63;1.90;;;5.20;91.70;;;;;;5032963;28;20208;-78
2021/11/27 12:01:07;;;;;;;2.20;1.92;;;5.10;91.60;;;;;;5035799;28;20226;-78
2021/11/27 12:03:41;;;;;;;2.08;1.98;;;5.10;91.70;;;;;;5041089;28;20227;-78
2021/11/27 12:06:11;;;;;;;2.72;1.90;;;5.20;92.80;;;;;;5051426;28;20204;-78
2021/11/27 12:09:00;;;;;;;2.17;1.92;;;5.20;92.60;;;;;;5046033;28;20297;-77
2021/11/27 12:11:55;;;;;;;2.22;2.13;;;5.20;92.50;;;;;;5027383;28;20200;-77
2021/11/27 12:15:07;;;;;;;3.53;2.25;;;5.30;92.30;;;;;;5034170;28;20231;-77
2021/11/27 12:17:55;;;;;;;2.70;2.50;;;5.20;92.40;;;;;;5043266;28;20196;-78
2021/11/27 12:20:22;;;;;;;2.50;2.30;;;5.10;92.80;;;;;;5031362;28;20283;-77
2021/11/27 12:22:49;;;;;;;3.38;2.60;;;5.00;93.40;;;;;;5037888;28;20290;-77
2021/11/27 12:25:25;;;;;;;6.18;2.92;;;5.10;94.10;;;;;;5050728;28;20223;-77
2021/11/27 12:28:16;;;;;;;3.95;2.78;;;5.00;94.20;;;;;;5028651;28;20245;-78
2021/11/27 12:31:06;;;;;;;3.78;2.78;;;5.00;94.30;;;;;;5020298;28;20199;-77
2021/11/27 12:33:57;;;;;;;3.20;2.90;;;4.90;93.80;;;;;;5047494;28;20227;-77
2021/11/27 12:36:44;;;;;;;3.35;2.80;;;4.80;93.80;;;;;;5022107;28;20245;-80
2021/11/27 12:39:15;;;;;;;3.65;2.78;;;4.90;93.90;;;;;;5025932;28;20302;-79
2021/11/27 12:41:44;;;;;;;3.85;2.78;;;4.80;93.70;;;;;;5028425;28;20230;-78
2021/11/27 12:44:17;;;;;;;4.60;3.28;;;4.80;93.70;;;;;;5028959;28;20310;-78
2021/11/27 12:46:46;;;;;;;2.67;2.47;;;4.80;93.40;;;;;;5028183;28;20211;-77
2021/11/27 12:49:50;;;;;;;2.47;2.25;;;4.70;93.20;;;;;;5033764;28;20210;-78
2021/11/27 12:52:39;;;;;;;2.38;2.00;;;4.70;92.40;;;;;;5026898;28;20203;-77
2021/11/27 12:55:29;;;;;;;5.15;2.35;;;4.60;91.50;;;;;;5024913;28;20298;-77
2021/11/27 12:57:58;;;;;;;2.03;1.90;;;4.50;91.40;;;;;;5034294;28;20207;-78
2021/11/27 13:00:27;;;;;;;3.80;2.45;;;4.50;91.70;;;;;;5036570;28;20198;-77
2021/11/27 13:02:56;;;;;;;2.67;2.45;;;4.50;91.90;;;;;;5044379;28;20234;-76
2021/11/27 13:05:24;;;;;;;2.47;2.28;;;4.50;92.70;;;;;;5019926;23;20229;-76
2021/11/27 13:07:51;;;;;;;2.65;1.90;;;4.50;92.40;;;;;;4990231;28;20218;-76